Terminal Aerodrome Forecast
Issued by NWS Quad Cities IA IL

Home | Current Version | Previous Version | Text Only | Print | Product List | Glossary On
Versions: 1 2 3 4 5 6 7 8 9 10 11 12 13 14 15 16 17 18 19 20 21 22 23 24 25 26 27 28 29 30 31 32 33 34
000
FTUS43 KDVN 192134 AAC
TAFMLI
TAF AMD
KMLI 192134Z 1922/2018 19012G20KT P6SM BKN030 OVC040
      TEMPO 1922/1924 3SM SHRA BR BKN015 OVC030
     FM200000 21008KT 4SM BR OVC008
     FM200200 26006KT 3SM BR OVC006
     FM200800 VRB03KT 1SM -RA BR OVC004=

USA.gov is the U.S. government's official web portal to all federal, state and local government web resources and services.